sensor_id;sensor_type;location;lat;lon;timestamp;P1;durP1;ratioP1;P2;durP2;ratioP2
24163;SDS011;12319;49.204;8.116;2023-04-05T00:01:25;3.08;;;1.80;;
24163;SDS011;12319;49.204;8.116;2023-04-05T00:03:51;3.53;;;1.88;;
24163;SDS011;12319;49.204;8.116;2023-04-05T00:06:18;3.08;;;1.70;;
24163;SDS011;12319;49.204;8.116;2023-04-05T00:08:46;3.75;;;1.80;;
24163;SDS011;12319;49.204;8.116;2023-04-05T00:11:14;3.03;;;1.77;;
24163;SDS011;12319;49.204;8.116;2023-04-05T00:13:40;3.35;;;1.80;;
24163;SDS011;12319;49.204;8.116;2023-04-05T00:16:06;3.38;;;1.83;;
24163;SDS011;12319;49.204;8.116;2023-04-05T00:18:32;3.25;;;1.85;;
24163;SDS011;12319;49.204;8.116;2023-04-05T00:20:58;3.20;;;1.70;;
24163;SDS011;12319;49.204;8.116;2023-04-05T00:23:23;3.40;;;1.80;;
24163;SDS011;12319;49.204;8.116;2023-04-05T00:25:50;3.35;;;1.80;;
24163;SDS011;12319;49.204;8.116;2023-04-05T00:28:16;3.35;;;1.80;;
24163;SDS011;12319;49.204;8.116;2023-04-05T00:30:42;3.33;;;1.90;;
24163;SDS011;12319;49.204;8.116;2023-04-05T00:33:07;3.20;;;1.85;;
24163;SDS011;12319;49.204;8.116;2023-04-05T00:35:33;3.57;;;1.90;;
24163;SDS011;12319;49.204;8.116;2023-04-05T00:37:58;3.30;;;1.90;;
24163;SDS011;12319;49.204;8.116;2023-04-05T00:40:24;3.85;;;1.88;;
24163;SDS011;12319;49.204;8.116;2023-04-05T00:42:50;3.00;;;1.80;;
24163;SDS011;12319;49.204;8.116;2023-04-05T00:45:15;3.47;;;1.85;;
24163;SDS011;12319;49.204;8.116;2023-04-05T00:47:41;2.80;;;1.67;;
24163;SDS011;12319;49.204;8.116;2023-04-05T00:50:08;2.72;;;1.67;;
24163;SDS011;12319;49.204;8.116;2023-04-05T00:52:35;3.97;;;2.17;;
24163;SDS011;12319;49.204;8.116;2023-04-05T00:55:05;3.42;;;1.75;;
24163;SDS011;12319;49.204;8.116;2023-04-05T00:57:31;3.28;;;1.73;;
24163;SDS011;12319;49.204;8.116;2023-04-05T01:00:03;3.58;;;1.70;;
24163;SDS011;12319;49.204;8.116;2023-04-05T01:02:34;2.97;;;1.70;;
24163;SDS011;12319;49.204;8.116;2023-04-05T01:05:13;3.33;;;1.80;;
24163;SDS011;12319;49.204;8.116;2023-04-05T01:08:11;3.53;;;1.95;;
24163;SDS011;12319;49.204;8.116;2023-04-05T01:10:43;4.07;;;1.90;;
24163;SDS011;12319;49.204;8.116;2023-04-05T01:13:15;3.47;;;1.90;;
24163;SDS011;12319;49.204;8.116;2023-04-05T01:15:41;3.08;;;1.80;;
24163;SDS011;12319;49.204;8.116;2023-04-05T01:18:07;3.50;;;2.00;;
24163;SDS011;12319;49.204;8.116;2023-04-05T01:20:36;3.47;;;1.80;;
24163;SDS011;12319;49.204;8.116;2023-04-05T01:31:44;3.22;;;1.90;;
24163;SDS011;12319;49.204;8.116;2023-04-05T01:37:00;2.80;;;1.70;;
24163;SDS011;12319;49.204;8.116;2023-04-05T01:39:27;3.00;;;1.70;;
24163;SDS011;12319;49.204;8.116;2023-04-05T01:41:58;3.90;;;1.80;;
24163;SDS011;12319;49.204;8.116;2023-04-05T01:44:25;3.90;;;2.00;;
24163;SDS011;12319;49.204;8.116;2023-04-05T01:46:51;3.72;;;1.90;;
24163;SDS011;12319;49.204;8.116;2023-04-05T01:49:16;3.33;;;2.00;;
24163;SDS011;12319;49.204;8.116;2023-04-05T01:51:42;3.97;;;1.75;;
24163;SDS011;12319;49.204;8.116;2023-04-05T01:54:08;3.83;;;1.93;;
24163;SDS011;12319;49.204;8.116;2023-04-05T01:56:33;3.30;;;1.77;;
24163;SDS011;12319;49.204;8.116;2023-04-05T01:58:59;2.90;;;1.60;;
24163;SDS011;12319;49.204;8.116;2023-04-05T02:01:24;2.80;;;1.67;;
24163;SDS011;12319;49.204;8.116;2023-04-05T02:03:50;3.08;;;1.70;;
24163;SDS011;12319;49.204;8.116;2023-04-05T02:06:16;3.27;;;1.80;;
24163;SDS011;12319;49.204;8.116;2023-04-05T02:08:41;3.65;;;1.90;;
24163;SDS011;12319;49.204;8.116;2023-04-05T02:11:07;3.73;;;2.00;;
24163;SDS011;12319;49.204;8.116;2023-04-05T02:13:32;3.83;;;2.00;;
24163;SDS011;12319;49.204;8.116;2023-04-05T02:15:58;2.92;;;1.63;;
24163;SDS011;12319;49.204;8.116;2023-04-05T02:18:24;3.13;;;1.83;;
24163;SDS011;12319;49.204;8.116;2023-04-05T02:20:59;4.07;;;2.10;;
24163;SDS011;12319;49.204;8.116;2023-04-05T02:23:27;2.95;;;1.63;;
24163;SDS011;12319;49.204;8.116;2023-04-05T02:25:54;3.70;;;1.80;;
24163;SDS011;12319;49.204;8.116;2023-04-05T02:28:20;2.73;;;1.70;;
24163;SDS011;12319;49.204;8.116;2023-04-05T02:30:45;3.60;;;1.90;;
24163;SDS011;12319;49.204;8.116;2023-04-05T02:33:11;3.43;;;1.40;;
24163;SDS011;12319;49.204;8.116;2023-04-05T02:35:36;3.40;;;1.80;;
24163;SDS011;12319;49.204;8.116;2023-04-05T02:38:02;4.35;;;2.15;;
24163;SDS011;12319;49.204;8.116;2023-04-05T02:40:28;3.80;;;2.00;;
24163;SDS011;12319;49.204;8.116;2023-04-05T02:42:54;3.42;;;1.83;;
24163;SDS011;12319;49.204;8.116;2023-04-05T02:45:20;2.87;;;1.80;;
24163;SDS011;12319;49.204;8.116;2023-04-05T02:47:45;3.33;;;1.80;;
24163;SDS011;12319;49.204;8.116;2023-04-05T02:50:11;3.15;;;1.85;;
24163;SDS011;12319;49.204;8.116;2023-04-05T02:52:36;3.60;;;1.70;;
24163;SDS011;12319;49.204;8.116;2023-04-05T02:55:05;3.22;;;1.77;;
24163;SDS011;12319;49.204;8.116;2023-04-05T02:57:31;3.53;;;1.80;;
24163;SDS011;12319;49.204;8.116;2023-04-05T02:59:57;3.90;;;1.83;;
24163;SDS011;12319;49.204;8.116;2023-04-05T03:02:22;3.22;;;1.70;;
24163;SDS011;12319;49.204;8.116;2023-04-05T03:04:50;3.28;;;1.92;;
24163;SDS011;12319;49.204;8.116;2023-04-05T03:07:17;3.92;;;1.90;;
24163;SDS011;12319;49.204;8.116;2023-04-05T03:09:43;2.83;;;1.73;;
24163;SDS011;12319;49.204;8.116;2023-04-05T03:12:10;3.97;;;1.92;;
24163;SDS011;12319;49.204;8.116;2023-04-05T03:14:36;3.37;;;1.90;;
24163;SDS011;12319;49.204;8.116;2023-04-05T03:17:02;3.58;;;1.90;;
24163;SDS011;12319;49.204;8.116;2023-04-05T03:19:28;3.00;;;1.80;;
24163;SDS011;12319;49.204;8.116;2023-04-05T03:21:54;3.53;;;1.90;;
24163;SDS011;12319;49.204;8.116;2023-04-05T03:24:20;3.33;;;1.90;;
24163;SDS011;12319;49.204;8.116;2023-04-05T03:26:46;3.20;;;1.80;;
24163;SDS011;12319;49.204;8.116;2023-04-05T03:29:12;3.50;;;2.00;;
24163;SDS011;12319;49.204;8.116;2023-04-05T03:31:38;3.38;;;1.90;;
24163;SDS011;12319;49.204;8.116;2023-04-05T03:34:03;3.40;;;1.80;;
24163;SDS011;12319;49.204;8.116;2023-04-05T03:36:29;3.72;;;1.80;;
24163;SDS011;12319;49.204;8.116;2023-04-05T03:39:05;3.13;;;1.67;;
24163;SDS011;12319;49.204;8.116;2023-04-05T03:41:32;3.43;;;1.80;;
24163;SDS011;12319;49.204;8.116;2023-04-05T03:43:58;3.92;;;2.00;;
24163;SDS011;12319;49.204;8.116;2023-04-05T03:46:24;3.40;;;1.90;;
24163;SDS011;12319;49.204;8.116;2023-04-05T03:48:50;2.77;;;1.70;;
24163;SDS011;12319;49.204;8.116;2023-04-05T03:51:15;3.20;;;1.80;;
24163;SDS011;12319;49.204;8.116;2023-04-05T03:53:42;3.15;;;1.70;;
24163;SDS011;12319;49.204;8.116;2023-04-05T03:56:08;3.33;;;1.80;;
24163;SDS011;12319;49.204;8.116;2023-04-05T03:58:35;3.47;;;1.80;;
24163;SDS011;12319;49.204;8.116;2023-04-05T04:01:00;3.17;;;1.80;;
24163;SDS011;12319;49.204;8.116;2023-04-05T04:03:26;3.50;;;1.95;;
24163;SDS011;12319;49.204;8.116;2023-04-05T04:05:52;3.50;;;1.90;;
24163;SDS011;12319;49.204;8.116;2023-04-05T04:08:18;3.03;;;1.70;;
24163;SDS011;12319;49.204;8.116;2023-04-05T04:10:45;3.40;;;1.80;;
24163;SDS011;12319;49.204;8.116;2023-04-05T04:13:10;3.53;;;2.00;;
24163;SDS011;12319;49.204;8.116;2023-04-05T04:15:36;3.60;;;1.90;;
24163;SDS011;12319;49.204;8.116;2023-04-05T04:18:01;3.33;;;1.80;;
24163;SDS011;12319;49.204;8.116;2023-04-05T04:20:27;2.83;;;1.67;;
24163;SDS011;12319;49.204;8.116;2023-04-05T04:22:53;3.87;;;1.90;;
24163;SDS011;12319;49.204;8.116;2023-04-05T04:25:20;3.58;;;1.90;;
24163;SDS011;12319;49.204;8.116;2023-04-05T04:27:46;3.50;;;1.85;;
24163;SDS011;12319;49.204;8.116;2023-04-05T04:30:12;2.85;;;1.70;;
24163;SDS011;12319;49.204;8.116;2023-04-05T04:32:39;3.20;;;1.73;;
24163;SDS011;12319;49.204;8.116;2023-04-05T04:38:04;4.77;;;2.00;;
24163;SDS011;12319;49.204;8.116;2023-04-05T04:40:34;4.07;;;2.10;;
24163;SDS011;12319;49.204;8.116;2023-04-05T04:43:05;4.20;;;2.00;;
24163;SDS011;12319;49.204;8.116;2023-04-05T04:45:34;2.92;;;1.80;;
24163;SDS011;12319;49.204;8.116;2023-04-05T04:48:01;4.88;;;1.80;;
24163;SDS011;12319;49.204;8.116;2023-04-05T04:50:29;4.03;;;1.90;;
24163;SDS011;12319;49.204;8.116;2023-04-05T04:52:57;2.88;;;1.58;;
24163;SDS011;12319;49.204;8.116;2023-04-05T04:55:23;4.07;;;1.83;;
24163;SDS011;12319;49.204;8.116;2023-04-05T04:57:52;4.18;;;2.05;;
24163;SDS011;12319;49.204;8.116;2023-04-05T05:00:19;3.30;;;1.90;;
24163;SDS011;12319;49.204;8.116;2023-04-05T05:02:45;3.60;;;1.80;;
24163;SDS011;12319;49.204;8.116;2023-04-05T05:05:11;3.20;;;1.70;;
24163;SDS011;12319;49.204;8.116;2023-04-05T05:07:38;4.18;;;2.00;;
24163;SDS011;12319;49.204;8.116;2023-04-05T05:10:08;3.90;;;1.98;;
24163;SDS011;12319;49.204;8.116;2023-04-05T05:12:35;3.50;;;2.07;;
24163;SDS011;12319;49.204;8.116;2023-04-05T05:15:01;3.83;;;1.90;;
24163;SDS011;12319;49.204;8.116;2023-04-05T05:17:27;2.92;;;1.75;;
24163;SDS011;12319;49.204;8.116;2023-04-05T05:19:53;4.00;;;2.10;;
24163;SDS011;12319;49.204;8.116;2023-04-05T05:22:18;2.78;;;1.60;;
24163;SDS011;12319;49.204;8.116;2023-04-05T05:24:44;3.30;;;1.90;;
24163;SDS011;12319;49.204;8.116;2023-04-05T05:27:10;2.97;;;1.65;;
24163;SDS011;12319;49.204;8.116;2023-04-05T05:29:36;3.88;;;1.98;;
24163;SDS011;12319;49.204;8.116;2023-04-05T05:32:02;5.00;;;1.90;;
24163;SDS011;12319;49.204;8.116;2023-04-05T05:34:27;3.35;;;1.80;;
24163;SDS011;12319;49.204;8.116;2023-04-05T05:36:55;3.37;;;1.90;;
24163;SDS011;12319;49.204;8.116;2023-04-05T05:39:21;2.88;;;1.70;;
24163;SDS011;12319;49.204;8.116;2023-04-05T05:41:47;3.97;;;2.00;;
24163;SDS011;12319;49.204;8.116;2023-04-05T05:44:13;4.50;;;1.73;;
24163;SDS011;12319;49.204;8.116;2023-04-05T05:46:39;3.05;;;1.70;;
24163;SDS011;12319;49.204;8.116;2023-04-05T05:49:04;3.27;;;1.80;;
24163;SDS011;12319;49.204;8.116;2023-04-05T05:51:30;3.95;;;1.90;;
24163;SDS011;12319;49.204;8.116;2023-04-05T05:53:56;4.53;;;2.03;;
24163;SDS011;12319;49.204;8.116;2023-04-05T05:56:22;3.42;;;1.77;;
24163;SDS011;12319;49.204;8.116;2023-04-05T05:58:48;3.00;;;1.60;;
24163;SDS011;12319;49.204;8.116;2023-04-05T06:01:13;3.22;;;1.90;;
24163;SDS011;12319;49.204;8.116;2023-04-05T06:03:39;3.83;;;1.90;;
24163;SDS011;12319;49.204;8.116;2023-04-05T06:06:04;4.55;;;1.92;;
24163;SDS011;12319;49.204;8.116;2023-04-05T06:08:32;3.85;;;2.13;;
24163;SDS011;12319;49.204;8.116;2023-04-05T06:10:58;3.83;;;2.03;;
24163;SDS011;12319;49.204;8.116;2023-04-05T06:13:23;4.30;;;2.10;;
24163;SDS011;12319;49.204;8.116;2023-04-05T06:15:49;3.72;;;1.95;;
24163;SDS011;12319;49.204;8.116;2023-04-05T06:18:15;4.33;;;2.10;;
24163;SDS011;12319;49.204;8.116;2023-04-05T06:20:41;4.00;;;1.90;;
24163;SDS011;12319;49.204;8.116;2023-04-05T06:23:11;3.53;;;1.83;;
24163;SDS011;12319;49.204;8.116;2023-04-05T06:25:37;4.63;;;2.03;;
24163;SDS011;12319;49.204;8.116;2023-04-05T06:28:03;3.30;;;1.80;;
24163;SDS011;12319;49.204;8.116;2023-04-05T06:30:29;3.90;;;2.00;;
24163;SDS011;12319;49.204;8.116;2023-04-05T06:32:56;3.80;;;1.80;;
24163;SDS011;12319;49.204;8.116;2023-04-05T06:35:22;3.23;;;1.77;;
24163;SDS011;12319;49.204;8.116;2023-04-05T06:37:48;3.63;;;1.90;;
24163;SDS011;12319;49.204;8.116;2023-04-05T06:40:14;3.70;;;1.90;;
24163;SDS011;12319;49.204;8.116;2023-04-05T06:42:40;3.65;;;1.90;;
24163;SDS011;12319;49.204;8.116;2023-04-05T06:45:07;4.00;;;2.10;;
24163;SDS011;12319;49.204;8.116;2023-04-05T06:47:33;4.43;;;2.00;;
24163;SDS011;12319;49.204;8.116;2023-04-05T06:49:59;4.73;;;1.93;;
24163;SDS011;12319;49.204;8.116;2023-04-05T06:52:26;4.03;;;2.03;;
24163;SDS011;12319;49.204;8.116;2023-04-05T06:54:52;4.20;;;2.00;;
24163;SDS011;12319;49.204;8.116;2023-04-05T06:57:17;3.67;;;1.87;;
24163;SDS011;12319;49.204;8.116;2023-04-05T06:59:43;4.72;;;2.58;;
24163;SDS011;12319;49.204;8.116;2023-04-05T07:02:08;4.83;;;2.20;;
24163;SDS011;12319;49.204;8.116;2023-04-05T07:04:34;4.43;;;2.25;;
24163;SDS011;12319;49.204;8.116;2023-04-05T07:07:01;5.32;;;2.88;;
24163;SDS011;12319;49.204;8.116;2023-04-05T07:09:28;5.03;;;2.85;;
24163;SDS011;12319;49.204;8.116;2023-04-05T07:11:56;5.32;;;2.75;;
24163;SDS011;12319;49.204;8.116;2023-04-05T07:14:29;5.07;;;2.63;;
24163;SDS011;12319;49.204;8.116;2023-04-05T07:16:56;5.20;;;2.88;;
24163;SDS011;12319;49.204;8.116;2023-04-05T07:19:22;4.88;;;2.70;;
24163;SDS011;12319;49.204;8.116;2023-04-05T07:21:48;4.70;;;2.47;;
24163;SDS011;12319;49.204;8.116;2023-04-05T07:24:13;4.70;;;2.47;;
24163;SDS011;12319;49.204;8.116;2023-04-05T07:26:39;4.80;;;2.40;;
24163;SDS011;12319;49.204;8.116;2023-04-05T07:29:05;4.55;;;2.30;;
24163;SDS011;12319;49.204;8.116;2023-04-05T07:31:32;4.47;;;2.15;;
24163;SDS011;12319;49.204;8.116;2023-04-05T07:33:58;4.07;;;1.83;;
24163;SDS011;12319;49.204;8.116;2023-04-05T07:36:24;3.85;;;2.03;;
24163;SDS011;12319;49.204;8.116;2023-04-05T07:38:51;3.67;;;1.90;;
24163;SDS011;12319;49.204;8.116;2023-04-05T07:41:20;3.97;;;1.90;;
24163;SDS011;12319;49.204;8.116;2023-04-05T07:43:47;4.10;;;2.05;;
24163;SDS011;12319;49.204;8.116;2023-04-05T07:46:13;3.33;;;1.70;;
24163;SDS011;12319;49.204;8.116;2023-04-05T07:48:39;4.40;;;2.10;;
24163;SDS011;12319;49.204;8.116;2023-04-05T07:51:05;5.03;;;2.13;;
24163;SDS011;12319;49.204;8.116;2023-04-05T07:53:32;5.23;;;1.70;;
24163;SDS011;12319;49.204;8.116;2023-04-05T07:56:02;3.75;;;1.80;;
24163;SDS011;12319;49.204;8.116;2023-04-05T07:58:28;3.95;;;1.90;;
24163;SDS011;12319;49.204;8.116;2023-04-05T08:00:57;4.05;;;1.92;;
24163;SDS011;12319;49.204;8.116;2023-04-05T08:03:27;3.92;;;1.70;;
24163;SDS011;12319;49.204;8.116;2023-04-05T08:05:53;4.50;;;1.90;;
24163;SDS011;12319;49.204;8.116;2023-04-05T08:08:18;3.55;;;1.70;;
24163;SDS011;12319;49.204;8.116;2023-04-05T08:10:44;3.80;;;1.93;;
24163;SDS011;12319;49.204;8.116;2023-04-05T08:13:10;3.50;;;1.75;;
24163;SDS011;12319;49.204;8.116;2023-04-05T08:15:35;4.57;;;2.00;;
24163;SDS011;12319;49.204;8.116;2023-04-05T08:18:01;3.70;;;1.63;;
24163;SDS011;12319;49.204;8.116;2023-04-05T08:20:27;3.80;;;1.70;;
24163;SDS011;12319;49.204;8.116;2023-04-05T08:22:52;3.23;;;1.50;;
24163;SDS011;12319;49.204;8.116;2023-04-05T08:25:18;4.18;;;1.83;;
24163;SDS011;12319;49.204;8.116;2023-04-05T08:27:43;4.35;;;1.92;;
24163;SDS011;12319;49.204;8.116;2023-04-05T08:30:09;4.00;;;1.90;;
24163;SDS011;12319;49.204;8.116;2023-04-05T08:32:35;4.13;;;1.90;;
24163;SDS011;12319;49.204;8.116;2023-04-05T08:35:01;4.10;;;1.70;;
24163;SDS011;12319;49.204;8.116;2023-04-05T08:37:26;4.05;;;2.00;;
24163;SDS011;12319;49.204;8.116;2023-04-05T08:39:52;4.53;;;1.90;;
24163;SDS011;12319;49.204;8.116;2023-04-05T08:42:22;4.03;;;1.77;;
24163;SDS011;12319;49.204;8.116;2023-04-05T08:44:53;3.78;;;1.77;;
24163;SDS011;12319;49.204;8.116;2023-04-05T08:47:23;4.47;;;2.00;;
24163;SDS011;12319;49.204;8.116;2023-04-05T08:49:49;4.50;;;1.67;;
24163;SDS011;12319;49.204;8.116;2023-04-05T08:52:15;4.83;;;2.10;;
24163;SDS011;12319;49.204;8.116;2023-04-05T08:54:40;4.70;;;1.73;;
24163;SDS011;12319;49.204;8.116;2023-04-05T08:57:06;4.18;;;1.73;;
24163;SDS011;12319;49.204;8.116;2023-04-05T08:59:35;4.50;;;1.80;;
24163;SDS011;12319;49.204;8.116;2023-04-05T09:02:06;4.20;;;1.83;;
24163;SDS011;12319;49.204;8.116;2023-04-05T09:04:38;4.85;;;2.20;;
24163;SDS011;12319;49.204;8.116;2023-04-05T09:07:08;3.83;;;1.60;;
24163;SDS011;12319;49.204;8.116;2023-04-05T09:09:38;4.57;;;1.70;;
24163;SDS011;12319;49.204;8.116;2023-04-05T09:12:08;4.63;;;1.80;;
24163;SDS011;12319;49.204;8.116;2023-04-05T09:14:33;4.13;;;1.90;;
24163;SDS011;12319;49.204;8.116;2023-04-05T09:17:03;3.83;;;1.60;;
24163;SDS011;12319;49.204;8.116;2023-04-05T09:19:30;5.00;;;1.80;;
24163;SDS011;12319;49.204;8.116;2023-04-05T09:22:05;5.70;;;1.88;;
24163;SDS011;12319;49.204;8.116;2023-04-05T09:27:06;4.20;;;2.10;;
24163;SDS011;12319;49.204;8.116;2023-04-05T09:29:33;4.43;;;2.15;;
24163;SDS011;12319;49.204;8.116;2023-04-05T09:32:00;5.78;;;2.20;;
24163;SDS011;12319;49.204;8.116;2023-04-05T09:34:28;4.15;;;1.98;;
24163;SDS011;12319;49.204;8.116;2023-04-05T09:36:54;3.90;;;1.90;;
24163;SDS011;12319;49.204;8.116;2023-04-05T09:39:20;5.10;;;2.20;;
24163;SDS011;12319;49.204;8.116;2023-04-05T09:47:20;4.18;;;2.30;;
24163;SDS011;12319;49.204;8.116;2023-04-05T09:49:48;6.20;;;2.40;;
24163;SDS011;12319;49.204;8.116;2023-04-05T09:52:32;4.53;;;2.30;;
24163;SDS011;12319;49.204;8.116;2023-04-05T09:54:59;4.73;;;1.90;;
24163;SDS011;12319;49.204;8.116;2023-04-05T09:57:27;4.85;;;2.40;;
24163;SDS011;12319;49.204;8.116;2023-04-05T09:59:57;5.13;;;2.33;;
24163;SDS011;12319;49.204;8.116;2023-04-05T10:02:23;5.27;;;2.53;;
24163;SDS011;12319;49.204;8.116;2023-04-05T10:04:49;5.47;;;2.17;;
24163;SDS011;12319;49.204;8.116;2023-04-05T10:07:16;5.22;;;2.42;;
24163;SDS011;12319;49.204;8.116;2023-04-05T10:09:43;4.50;;;2.30;;
24163;SDS011;12319;49.204;8.116;2023-04-05T10:12:11;4.93;;;2.30;;
24163;SDS011;12319;49.204;8.116;2023-04-05T10:14:42;4.83;;;2.30;;
24163;SDS011;12319;49.204;8.116;2023-04-05T10:17:15;4.63;;;2.58;;
24163;SDS011;12319;49.204;8.116;2023-04-05T10:20:13;4.72;;;2.28;;
24163;SDS011;12319;49.204;8.116;2023-04-05T10:25:23;6.25;;;2.85;;
24163;SDS011;12319;49.204;8.116;2023-04-05T10:27:53;4.65;;;2.47;;
24163;SDS011;12319;49.204;8.116;2023-04-05T10:30:24;5.90;;;2.70;;
24163;SDS011;12319;49.204;8.116;2023-04-05T10:33:06;4.70;;;2.40;;
24163;SDS011;12319;49.204;8.116;2023-04-05T10:38:46;4.70;;;2.38;;
24163;SDS011;12319;49.204;8.116;2023-04-05T10:41:25;5.30;;;2.45;;
24163;SDS011;12319;49.204;8.116;2023-04-05T10:43:50;5.88;;;2.38;;
24163;SDS011;12319;49.204;8.116;2023-04-05T10:46:20;5.05;;;2.28;;
24163;SDS011;12319;49.204;8.116;2023-04-05T10:51:36;5.38;;;2.30;;
24163;SDS011;12319;49.204;8.116;2023-04-05T10:54:02;5.05;;;2.20;;
24163;SDS011;12319;49.204;8.116;2023-04-05T10:56:29;3.95;;;2.10;;
24163;SDS011;12319;49.204;8.116;2023-04-05T10:58:56;5.32;;;2.40;;
24163;SDS011;12319;49.204;8.116;2023-04-05T11:01:23;4.60;;;2.25;;
24163;SDS011;12319;49.204;8.116;2023-04-05T11:03:51;4.10;;;1.85;;
24163;SDS011;12319;49.204;8.116;2023-04-05T11:06:23;4.82;;;2.50;;
24163;SDS011;12319;49.204;8.116;2023-04-05T11:08:56;5.13;;;2.70;;
24163;SDS011;12319;49.204;8.116;2023-04-05T11:11:37;4.85;;;2.33;;
24163;SDS011;12319;49.204;8.116;2023-04-05T11:17:01;4.40;;;2.20;;
24163;SDS011;12319;49.204;8.116;2023-04-05T11:22:08;4.95;;;2.30;;
24163;SDS011;12319;49.204;8.116;2023-04-05T11:24:56;5.00;;;2.90;;
24163;SDS011;12319;49.204;8.116;2023-04-05T11:27:30;5.20;;;2.40;;
24163;SDS011;12319;49.204;8.116;2023-04-05T11:29:58;5.50;;;2.47;;
24163;SDS011;12319;49.204;8.116;2023-04-05T11:32:45;5.35;;;2.17;;
24163;SDS011;12319;49.204;8.116;2023-04-05T11:35:14;3.97;;;2.00;;
24163;SDS011;12319;49.204;8.116;2023-04-05T11:37:54;4.28;;;2.10;;
24163;SDS011;12319;49.204;8.116;2023-04-05T11:40:31;4.40;;;2.33;;
24163;SDS011;12319;49.204;8.116;2023-04-05T11:43:02;4.50;;;2.30;;
24163;SDS011;12319;49.204;8.116;2023-04-05T11:45:32;3.97;;;2.00;;
24163;SDS011;12319;49.204;8.116;2023-04-05T11:47:59;4.65;;;2.22;;
24163;SDS011;12319;49.204;8.116;2023-04-05T11:50:32;3.78;;;1.95;;
24163;SDS011;12319;49.204;8.116;2023-04-05T11:55:41;4.90;;;2.40;;
24163;SDS011;12319;49.204;8.116;2023-04-05T11:58:16;6.40;;;2.90;;
24163;SDS011;12319;49.204;8.116;2023-04-05T12:00:44;4.90;;;2.63;;
24163;SDS011;12319;49.204;8.116;2023-04-05T12:03:13;6.07;;;2.38;;
24163;SDS011;12319;49.204;8.116;2023-04-05T12:05:52;4.95;;;2.35;;
24163;SDS011;12319;49.204;8.116;2023-04-05T12:08:19;3.50;;;1.60;;
24163;SDS011;12319;49.204;8.116;2023-04-05T12:10:52;4.88;;;2.30;;
24163;SDS011;12319;49.204;8.116;2023-04-05T12:13:28;4.22;;;2.15;;
24163;SDS011;12319;49.204;8.116;2023-04-05T12:15:56;6.88;;;2.45;;
24163;SDS011;12319;49.204;8.116;2023-04-05T12:18:27;4.75;;;2.40;;
24163;SDS011;12319;49.204;8.116;2023-04-05T12:20:54;6.45;;;2.08;;
24163;SDS011;12319;49.204;8.116;2023-04-05T12:23:20;4.20;;;2.10;;
24163;SDS011;12319;49.204;8.116;2023-04-05T12:25:50;5.72;;;2.05;;
24163;SDS011;12319;49.204;8.116;2023-04-05T12:28:18;3.60;;;1.73;;
24163;SDS011;12319;49.204;8.116;2023-04-05T12:30:49;5.43;;;2.63;;
24163;SDS011;12319;49.204;8.116;2023-04-05T12:33:24;6.45;;;2.38;;
24163;SDS011;12319;49.204;8.116;2023-04-05T12:35:54;4.30;;;1.98;;
24163;SDS011;12319;49.204;8.116;2023-04-05T12:38:20;4.80;;;2.28;;
24163;SDS011;12319;49.204;8.116;2023-04-05T12:40:50;4.97;;;2.22;;
24163;SDS011;12319;49.204;8.116;2023-04-05T12:43:16;4.28;;;2.13;;
24163;SDS011;12319;49.204;8.116;2023-04-05T12:45:44;3.85;;;2.00;;
24163;SDS011;12319;49.204;8.116;2023-04-05T12:48:14;5.43;;;2.45;;
24163;SDS011;12319;49.204;8.116;2023-04-05T12:50:45;4.93;;;2.20;;
24163;SDS011;12319;49.204;8.116;2023-04-05T12:53:16;5.25;;;2.40;;
24163;SDS011;12319;49.204;8.116;2023-04-05T12:55:49;5.38;;;2.40;;
24163;SDS011;12319;49.204;8.116;2023-04-05T12:58:16;4.15;;;2.08;;
24163;SDS011;12319;49.204;8.116;2023-04-05T13:00:43;4.00;;;2.00;;
24163;SDS011;12319;49.204;8.116;2023-04-05T13:03:16;4.82;;;2.35;;
24163;SDS011;12319;49.204;8.116;2023-04-05T13:05:44;4.43;;;2.30;;
24163;SDS011;12319;49.204;8.116;2023-04-05T13:08:11;4.00;;;2.08;;
24163;SDS011;12319;49.204;8.116;2023-04-05T13:10:36;4.82;;;2.33;;
24163;SDS011;12319;49.204;8.116;2023-04-05T13:13:02;6.27;;;2.60;;
24163;SDS011;12319;49.204;8.116;2023-04-05T13:15:27;4.70;;;2.00;;
24163;SDS011;12319;49.204;8.116;2023-04-05T13:17:53;4.70;;;2.10;;
24163;SDS011;12319;49.204;8.116;2023-04-05T13:20:19;4.37;;;2.00;;
24163;SDS011;12319;49.204;8.116;2023-04-05T13:22:45;4.82;;;2.28;;
24163;SDS011;12319;49.204;8.116;2023-04-05T13:25:13;5.60;;;2.28;;
24163;SDS011;12319;49.204;8.116;2023-04-05T13:27:39;4.07;;;2.10;;
24163;SDS011;12319;49.204;8.116;2023-04-05T13:30:05;4.00;;;1.80;;
24163;SDS011;12319;49.204;8.116;2023-04-05T13:32:31;3.75;;;1.75;;
24163;SDS011;12319;49.204;8.116;2023-04-05T13:34:57;3.53;;;1.90;;
24163;SDS011;12319;49.204;8.116;2023-04-05T13:37:23;4.40;;;1.90;;
24163;SDS011;12319;49.204;8.116;2023-04-05T13:39:49;4.50;;;1.83;;
24163;SDS011;12319;49.204;8.116;2023-04-05T13:42:14;4.30;;;2.05;;
24163;SDS011;12319;49.204;8.116;2023-04-05T13:44:40;4.23;;;2.10;;
24163;SDS011;12319;49.204;8.116;2023-04-05T13:47:06;4.38;;;2.08;;
24163;SDS011;12319;49.204;8.116;2023-04-05T13:49:32;4.38;;;2.08;;
24163;SDS011;12319;49.204;8.116;2023-04-05T13:51:58;4.17;;;2.10;;
24163;SDS011;12319;49.204;8.116;2023-04-05T13:54:24;4.15;;;2.10;;
24163;SDS011;12319;49.204;8.116;2023-04-05T13:56:49;6.17;;;2.43;;
24163;SDS011;12319;49.204;8.116;2023-04-05T13:59:15;5.00;;;2.33;;
24163;SDS011;12319;49.204;8.116;2023-04-05T14:01:44;5.07;;;2.38;;
24163;SDS011;12319;49.204;8.116;2023-04-05T14:04:10;5.30;;;2.05;;
24163;SDS011;12319;49.204;8.116;2023-04-05T14:06:36;4.43;;;2.00;;
24163;SDS011;12319;49.204;8.116;2023-04-05T14:09:01;4.30;;;2.17;;
24163;SDS011;12319;49.204;8.116;2023-04-05T14:11:27;4.43;;;2.20;;
24163;SDS011;12319;49.204;8.116;2023-04-05T14:13:53;4.57;;;2.40;;
24163;SDS011;12319;49.204;8.116;2023-04-05T14:16:19;4.07;;;1.98;;
24163;SDS011;12319;49.204;8.116;2023-04-05T14:18:44;5.00;;;2.50;;
24163;SDS011;12319;49.204;8.116;2023-04-05T14:21:10;4.97;;;2.30;;
24163;SDS011;12319;49.204;8.116;2023-04-05T14:23:36;4.03;;;1.97;;
24163;SDS011;12319;49.204;8.116;2023-04-05T14:26:01;3.95;;;2.00;;
24163;SDS011;12319;49.204;8.116;2023-04-05T14:28:27;5.20;;;2.27;;
24163;SDS011;12319;49.204;8.116;2023-04-05T14:30:52;5.30;;;2.60;;
24163;SDS011;12319;49.204;8.116;2023-04-05T14:33:18;4.95;;;2.03;;
24163;SDS011;12319;49.204;8.116;2023-04-05T14:35:43;4.77;;;2.37;;
24163;SDS011;12319;49.204;8.116;2023-04-05T14:38:09;6.00;;;2.72;;
24163;SDS011;12319;49.204;8.116;2023-04-05T14:40:35;4.60;;;2.50;;
24163;SDS011;12319;49.204;8.116;2023-04-05T14:43:01;5.75;;;2.60;;
24163;SDS011;12319;49.204;8.116;2023-04-05T14:45:26;5.30;;;2.20;;
24163;SDS011;12319;49.204;8.116;2023-04-05T14:47:52;5.85;;;2.55;;
24163;SDS011;12319;49.204;8.116;2023-04-05T14:50:18;4.57;;;2.30;;
24163;SDS011;12319;49.204;8.116;2023-04-05T14:52:44;5.78;;;2.40;;
24163;SDS011;12319;49.204;8.116;2023-04-05T14:55:10;5.25;;;2.75;;
24163;SDS011;12319;49.204;8.116;2023-04-05T14:57:40;4.53;;;2.10;;
24163;SDS011;12319;49.204;8.116;2023-04-05T15:00:06;4.25;;;2.33;;
24163;SDS011;12319;49.204;8.116;2023-04-05T15:02:36;4.40;;;2.08;;
24163;SDS011;12319;49.204;8.116;2023-04-05T15:05:05;4.65;;;2.30;;
24163;SDS011;12319;49.204;8.116;2023-04-05T15:07:31;4.82;;;2.40;;
24163;SDS011;12319;49.204;8.116;2023-04-05T15:09:56;4.40;;;1.95;;
24163;SDS011;12319;49.204;8.116;2023-04-05T15:12:22;6.20;;;2.30;;
24163;SDS011;12319;49.204;8.116;2023-04-05T15:14:48;4.82;;;2.30;;
24163;SDS011;12319;49.204;8.116;2023-04-05T15:17:18;4.50;;;2.15;;
24163;SDS011;12319;49.204;8.116;2023-04-05T15:19:44;4.75;;;1.98;;
24163;SDS011;12319;49.204;8.116;2023-04-05T15:22:10;4.33;;;2.37;;
24163;SDS011;12319;49.204;8.116;2023-04-05T15:24:37;4.57;;;2.33;;
24163;SDS011;12319;49.204;8.116;2023-04-05T15:27:05;4.25;;;2.30;;
24163;SDS011;12319;49.204;8.116;2023-04-05T15:29:31;4.28;;;2.17;;